Terminal Aerodrome Forecast
Issued by NWS

Home | Current Version | Previous Version | Text Only | Print | Product List | Glossary On
Versions: 1 2 3 4 5 6 7 8 9 10 11 12 13 14 15 16 17 18 19 20 21 22 23 24 25 26 27 28 29 30 31 32 33 34 35 36 37
000
FTUS41 KRNK 070528
TAFBCB
TAF
KBCB 070528Z 0706/0806 VRB03KT 6SM BR BKN008 OVC010
     FM070800 31009KT P6SM SCT008 BKN010
     FM071300 29006KT P6SM SCT015
     FM072000 VRB03KT P6SM FEW150
     FM080500 00000KT P6SM SCT030 SCT150=

USA.gov is the U.S. government's official web portal to all federal, state and local government web resources and services.